This is the latest recevied weather packets stored in our database for station/object IZ8NVY-15. If no packets are shown the sender has not sent any weather packets the latest 10 day(s).
| Time | Temp. | Humidity | Pressure | Rain* | Wind** | Luminosity | Snow |
|---|---|---|---|---|---|---|---|
| 1777910070 | 22.22° C | 45% | 981.8 hPa | - | - | - | - |
| 1777906471 | 24.44° C | 43% | 981.8 hPa | - | - | - | - |
| 1777902867 | 25° C | 44% | 982 hPa | - | - | - | - |
| 1777899265 | 26.67° C | 44% | 982.6 hPa | - | - | - | - |
| 1777895674 | 26.11° C | 47% | 982.9 hPa | - | - | - | - |
| 1777892063 | 25.56° C | 49% | 983.4 hPa | - | - | - | - |
| 1777888471 | 23.89° C | 51% | 984.3 hPa | - | - | - | - |
| 1777866855 | 10° C | 62% | 983.3 hPa | - | - | - | - |
| 1777856052 | 11.67° C | 59% | 983.5 hPa | - | - | - | - |
| 1777852449 | 12.22° C | 58% | 983.4 hPa | - | - | - | - |
| 1777848847 | 12.78° C | 57% | 983.8 hPa | - | - | - | - |
| 1777845246 | 12.78° C | 56% | 983.7 hPa | - | - | - | - |
| 1777830840 | 17.78° C | 49% | 982.4 hPa | - | - | - | - |
| 1777798431 | 26.67° C | 42% | 983.9 hPa | - | - | - | - |
| 1777794830 | 24.44° C | 45% | 984.3 hPa | - | - | - | - |
| 1777791228 | 21.11° C | 49% | 984.5 hPa | - | - | - | - |
| 1777787631 | 12.78° C | 50% | 984.5 hPa | - | - | - | - |
| 1777784029 | 10° C | 51% | 984.3 hPa | - | - | - | - |
| 1777780436 | 8.89° C | 50% | 984 hPa | - | - | - | - |
| 1777776829 | 9.44° C | 49% | 984 hPa | - | - | - | - |
| 1777773220 | 9.44° C | 49% | 984.5 hPa | - | - | - | - |
| 1777769613 | 10° C | 48% | 984.6 hPa | - | - | - | - |
| 1777762421 | 10.56° C | 46% | 985.8 hPa | - | - | - | - |
| 1777758820 | 11.11° C | 45% | 986 hPa | - | - | - | - |
| 1777751612 | 13.33° C | 42% | 985.6 hPa | - | - | - | - |
* Rain since midnight (hover to see other rain measurements)
** Current wind speed in m/s (hover to see current wind gust speed)